createdAt,value
2019-02-25T00:04:37.564Z,42.93
2019-02-25T00:09:39.637Z,42.87
2019-02-25T00:14:41.678Z,43.04
2019-02-25T00:19:43.774Z,43.29
2019-02-25T00:24:46.342Z,43.69
2019-02-25T00:29:48.979Z,43.80
2019-02-25T00:34:51.093Z,43.55
2019-02-25T00:39:53.203Z,43.99
2019-02-25T00:44:55.454Z,43.97
2019-02-25T00:49:58.149Z,44.22
2019-02-25T00:55:00.329Z,44.45
2019-02-25T01:00:04.954Z,44.54
2019-02-25T01:05:07.509Z,44.57
2019-02-25T01:10:09.896Z,44.56
2019-02-25T01:15:13.876Z,44.80
2019-02-25T01:20:15.927Z,44.79
2019-02-25T01:25:17.989Z,44.82
2019-02-25T01:30:20.346Z,44.99
2019-02-25T01:35:22.447Z,45.22
2019-02-25T01:40:24.718Z,45.21
2019-02-25T01:45:26.756Z,45.29
2019-02-25T01:50:28.819Z,45.21
2019-02-25T01:55:30.866Z,45.22
2019-02-25T02:00:32.928Z,45.64
2019-02-25T02:05:35.086Z,45.75
2019-02-25T02:10:37.167Z,45.87
2019-02-25T02:15:39.245Z,46.20
2019-02-25T02:20:41.339Z,46.29
2019-02-25T02:25:43.399Z,46.31
2019-02-25T02:30:45.487Z,46.06
2019-02-25T02:35:47.904Z,45.90
2019-02-25T02:40:49.983Z,45.83
2019-02-25T02:46:11.459Z,46.23
2019-02-25T02:51:13.510Z,46.09
2019-02-25T02:56:15.553Z,46.42
2019-02-25T03:01:17.604Z,46.74
2019-02-25T03:06:19.683Z,46.63
2019-02-25T03:11:21.749Z,46.63
2019-02-25T03:16:23.829Z,46.70
2019-02-25T03:21:25.905Z,46.91
2019-02-25T03:26:27.983Z,46.98
2019-02-25T03:31:30.103Z,47.04
2019-02-25T03:36:32.261Z,47.05
2019-02-25T03:41:34.494Z,47.30
2019-02-25T03:46:36.618Z,47.23
2019-02-25T03:51:38.730Z,47.12
2019-02-25T03:56:40.810Z,47.02
2019-02-25T04:01:42.973Z,47.42
2019-02-25T04:06:45.111Z,47.46
2019-02-25T04:11:47.183Z,47.55
2019-02-25T04:16:49.294Z,47.47
2019-02-25T04:21:51.358Z,47.34
2019-02-25T04:26:55.636Z,47.18
2019-02-25T04:31:57.696Z,47.14
2019-02-25T04:36:59.800Z,46.98
2019-02-25T04:42:01.868Z,47.44
2019-02-25T04:47:04.004Z,47.27
2019-02-25T04:52:06.056Z,47.31
2019-02-25T04:57:08.161Z,47.56
2019-02-25T05:02:10.225Z,47.71
2019-02-25T05:07:12.313Z,47.54
2019-02-25T05:12:14.393Z,47.42
2019-02-25T05:17:16.375Z,47.45
2019-02-25T05:22:18.463Z,47.68
2019-02-25T05:27:20.622Z,47.93
2019-02-25T05:32:22.753Z,48.16
2019-02-25T05:37:24.846Z,48.11
2019-02-25T05:42:26.901Z,47.74
2019-02-25T05:47:29.039Z,47.67
2019-02-25T05:52:31.077Z,47.69
2019-02-25T05:57:33.169Z,47.67
2019-02-25T06:02:35.274Z,47.67
2019-02-25T06:07:37.323Z,47.71
2019-02-25T06:12:39.379Z,48.13
2019-02-25T06:17:41.545Z,48.16
2019-02-25T06:22:44.134Z,48.13
2019-02-25T06:27:46.168Z,48.25
2019-02-25T06:32:48.250Z,48.25
2019-02-25T06:37:50.361Z,47.93
2019-02-25T06:42:52.432Z,48.06
2019-02-25T06:47:54.534Z,47.87
2019-02-25T06:52:56.594Z,47.74
2019-02-25T06:57:58.678Z,47.47
2019-02-25T07:03:00.819Z,47.51
2019-02-25T07:08:09.691Z,47.44
2019-02-25T07:13:31.489Z,47.10
2019-02-25T07:18:47.001Z,47.03
2019-02-25T07:24:11.533Z,46.69
2019-02-25T07:29:23.881Z,46.65
2019-02-25T07:34:56.009Z,46.61
2019-02-25T07:40:07.968Z,46.22
2019-02-25T07:45:19.037Z,46.01
2019-02-25T07:50:33.500Z,45.47
2019-02-25T07:55:50.870Z,44.97
2019-02-25T08:01:00.794Z,44.56
2019-02-25T08:06:26.606Z,44.11
2019-02-25T08:11:54.144Z,43.38
2019-02-25T08:17:15.867Z,42.56
2019-02-25T08:22:40.326Z,41.58
2019-02-25T08:28:00.666Z,40.90
2019-02-25T08:33:23.321Z,40.40
2019-02-25T08:38:34.484Z,39.76
2019-02-25T08:43:58.777Z,38.96
2019-02-25T08:49:12.313Z,38.25
2019-02-25T08:54:14.472Z,38.31
2019-02-25T08:59:16.521Z,37.52
2019-02-25T09:04:18.577Z,37.56
2019-02-25T09:09:20.683Z,37.23
2019-02-25T09:14:22.795Z,36.48
2019-02-25T09:19:24.979Z,36.70
2019-02-25T09:24:27.060Z,35.99
2019-02-25T09:29:29.405Z,35.64
2019-02-25T09:34:31.457Z,35.37
2019-02-25T09:39:33.619Z,34.89
2019-02-25T09:44:37.857Z,34.21
2019-02-25T09:49:39.758Z,33.81
2019-02-25T09:54:41.800Z,33.50
2019-02-25T09:59:43.906Z,33.52
2019-02-25T10:04:46.044Z,33.16
2019-02-25T10:09:48.164Z,33.22
2019-02-25T10:14:50.277Z,32.58
2019-02-25T10:19:52.434Z,32.25
2019-02-25T10:24:54.561Z,32.23
2019-02-25T10:29:56.638Z,32.22
2019-02-25T10:34:58.737Z,32.03
2019-02-25T10:40:00.792Z,31.74
2019-02-25T10:45:04.806Z,31.40
2019-02-25T10:50:21.582Z,30.99
2019-02-25T10:55:53.035Z,31.37
2019-02-25T11:00:57.807Z,31.16
2019-02-25T11:06:00.814Z,31.40
2019-02-25T11:11:10.834Z,31.32
2019-02-25T11:16:18.690Z,31.67
2019-02-25T11:21:23.116Z,31.77
2019-02-25T11:26:26.667Z,31.92
2019-02-25T11:31:29.284Z,32.28
2019-02-25T11:36:31.459Z,31.53
2019-02-25T11:41:38.899Z,31.75
2019-02-25T11:46:44.101Z,31.22
2019-02-25T11:51:46.157Z,30.86
2019-02-25T11:56:48.294Z,30.17
2019-02-25T12:01:50.431Z,30.47
2019-02-25T12:06:53.701Z,31.21
2019-02-25T12:11:55.863Z,30.59
2019-02-25T12:16:59.441Z,30.35
2019-02-25T12:22:01.709Z,30.89
2019-02-25T12:27:03.868Z,30.58
2019-02-25T12:32:06.036Z,30.50
2019-02-25T12:37:08.092Z,30.52
2019-02-25T12:42:12.052Z,30.78
2019-02-25T12:47:15.347Z,30.51
2019-02-25T12:52:17.513Z,30.20
2019-02-25T12:57:22.726Z,29.92
2019-02-25T13:02:24.779Z,29.91
2019-02-25T13:07:26.995Z,30.06
2019-02-25T13:12:29.155Z,30.23
2019-02-25T13:17:31.647Z,29.55
2019-02-25T13:22:33.727Z,29.84
2019-02-25T13:27:35.843Z,29.21
2019-02-25T13:32:38.094Z,29.15
2019-02-25T13:37:40.694Z,29.23
2019-02-25T13:42:44.003Z,29.03
2019-02-25T13:47:46.292Z,28.08
2019-02-25T13:52:49.046Z,28.15
2019-02-25T13:57:51.343Z,28.24
2019-02-25T14:02:53.768Z,28.26
2019-02-25T14:07:56.008Z,28.08
2019-02-25T14:12:58.156Z,27.97
2019-02-25T14:18:00.070Z,27.85
2019-02-25T14:23:02.088Z,28.24
2019-02-25T14:28:08.130Z,27.79
2019-02-25T14:33:12.618Z,27.33
2019-02-25T14:38:17.279Z,27.04
2019-02-25T14:43:20.646Z,26.95
2019-02-25T14:48:23.509Z,26.77
2019-02-25T14:53:26.897Z,26.63
2019-02-25T14:58:31.394Z,26.89
2019-02-25T15:03:32.899Z,27.17
2019-02-25T15:08:34.962Z,27.47
2019-02-25T15:13:38.816Z,27.87
2019-02-25T15:18:41.112Z,27.75
2019-02-25T15:23:43.289Z,27.80
2019-02-25T15:28:45.346Z,27.55
2019-02-25T15:33:47.405Z,27.70
2019-02-25T15:38:49.534Z,27.70
2019-02-25T15:43:52.224Z,27.63
2019-02-25T15:48:54.320Z,27.48
2019-02-25T15:53:57.709Z,27.65
2019-02-25T15:59:00.406Z,27.66
2019-02-25T16:04:06.933Z,27.99
2019-02-25T16:09:09.315Z,27.93
2019-02-25T16:14:11.659Z,28.13
2019-02-25T16:19:16.886Z,28.42
2019-02-25T16:24:18.609Z,28.52
2019-02-25T16:29:21.098Z,28.83
2019-02-25T16:34:23.226Z,29.09
2019-02-25T16:39:25.279Z,29.31
2019-02-25T16:44:27.505Z,29.43
2019-02-25T16:49:31.621Z,29.65
2019-02-25T16:54:33.771Z,29.93
2019-02-25T16:59:35.916Z,30.31
2019-02-25T17:04:37.982Z,30.67
2019-02-25T17:09:40.781Z,31.12
2019-02-25T17:14:44.286Z,31.07
2019-02-25T17:19:46.338Z,31.42
2019-02-25T17:24:52.420Z,31.77
2019-02-25T17:29:56.092Z,32.02
2019-02-25T17:35:00.524Z,32.40
2019-02-25T17:40:06.376Z,32.45
2019-02-25T17:45:11.290Z,32.70
2019-02-25T17:50:15.045Z,32.91
2019-02-25T17:55:18.798Z,33.13
2019-02-25T18:00:35.021Z,33.34
2019-02-25T18:05:40.070Z,33.83
2019-02-25T18:10:45.200Z,34.11
2019-02-25T18:15:49.195Z,34.24
2019-02-25T18:20:53.048Z,34.37
2019-02-25T18:25:58.177Z,34.82
2019-02-25T18:31:00.245Z,35.10
2019-02-25T18:36:11.309Z,35.39
2019-02-25T18:41:13.838Z,35.57
2019-02-25T18:46:16.095Z,35.79
2019-02-25T18:51:18.558Z,36.01
2019-02-25T18:56:22.303Z,36.17
2019-02-25T19:01:24.721Z,36.39
2019-02-25T19:06:33.407Z,36.54
2019-02-25T19:11:40.421Z,36.71
2019-02-25T19:16:44.159Z,37.01
2019-02-25T19:21:48.362Z,37.09
2019-02-25T19:26:53.754Z,37.29
2019-02-25T19:32:00.585Z,37.53
2019-02-25T19:37:02.839Z,37.85
2019-02-25T19:42:09.044Z,37.83
2019-02-25T19:47:19.311Z,38.08
2019-02-25T19:52:30.834Z,38.30
2019-02-25T19:57:39.124Z,38.32
2019-02-25T20:02:48.113Z,38.94
2019-02-25T20:07:55.246Z,38.75
2019-02-25T20:12:59.611Z,38.95
2019-02-25T20:18:11.640Z,39.12
2019-02-25T20:23:20.221Z,39.49
2019-02-25T20:28:26.913Z,39.54
2019-02-25T20:33:33.067Z,39.59
2019-02-25T20:38:39.286Z,39.65
2019-02-25T20:43:41.905Z,39.77
2019-02-25T20:48:48.395Z,39.92
2019-02-25T20:54:05.255Z,40.15
2019-02-25T20:59:09.864Z,40.27
2019-02-25T21:04:13.570Z,40.54
2019-02-25T21:09:16.099Z,40.58
2019-02-25T21:14:18.244Z,40.79
2019-02-25T21:19:20.389Z,40.80
2019-02-25T21:24:22.617Z,41.07
2019-02-25T21:29:26.910Z,41.24
2019-02-25T21:34:30.711Z,41.25
2019-02-25T21:39:34.509Z,41.65
2019-02-25T21:44:37.266Z,41.81
2019-02-25T21:49:40.545Z,41.84
2019-02-25T21:54:44.870Z,41.96
2019-02-25T21:59:47.102Z,42.39
2019-02-25T22:04:50.141Z,42.47
2019-02-25T22:09:53.553Z,42.53
2019-02-25T22:14:55.736Z,42.57
2019-02-25T22:19:57.914Z,42.70
2019-02-25T22:25:04.127Z,42.88
2019-02-25T22:30:07.348Z,42.83
2019-02-25T22:35:11.844Z,43.20
2019-02-25T22:40:15.046Z,43.49
2019-02-25T22:45:18.803Z,43.68
2019-02-25T22:50:21.376Z,44.03
2019-02-25T22:55:23.428Z,44.35
2019-02-25T23:00:48.626Z,44.53
2019-02-25T23:05:52.690Z,44.61
2019-02-25T23:10:54.892Z,44.72
2019-02-25T23:15:57.096Z,44.91
2019-02-25T23:21:01.137Z,45.18
2019-02-25T23:26:03.238Z,45.31
2019-02-25T23:31:05.373Z,45.54
2019-02-25T23:36:08.406Z,45.63
2019-02-25T23:41:12.796Z,45.72
2019-02-25T23:46:15.704Z,45.87
2019-02-25T23:51:19.092Z,46.15
2019-02-25T23:56:22.894Z,46.25
